createdAt,value
2023-03-16T00:00:04.465Z,5.40
2023-03-16T00:05:00.502Z,5.00
2023-03-16T00:10:01.130Z,6.20
2023-03-16T00:15:00.858Z,8.50
2023-03-16T00:20:00.804Z,5.70
2023-03-16T00:25:00.551Z,4.50
2023-03-16T00:30:00.523Z,5.20
2023-03-16T00:35:01.558Z,5.70
2023-03-16T00:40:00.600Z,4.30
2023-03-16T00:45:00.847Z,6.00
2023-03-16T00:50:01.272Z,6.50
2023-03-16T00:55:00.510Z,7.00
2023-03-16T01:00:01.229Z,5.20
2023-03-16T01:05:00.486Z,7.20
2023-03-16T01:10:00.785Z,4.80
2023-03-16T01:15:00.709Z,6.20
2023-03-16T01:20:00.902Z,5.70
2023-03-16T01:25:00.505Z,6.20
2023-03-16T01:30:00.509Z,6.30
2023-03-16T01:35:00.457Z,6.80
2023-03-16T01:40:00.567Z,6.60
2023-03-16T01:45:00.527Z,6.00
2023-03-16T01:50:01.161Z,7.10
2023-03-16T01:55:11.157Z,5.90
2023-03-16T02:00:06.484Z,7.80
2023-03-16T02:05:02.084Z,7.00
2023-03-16T02:10:03.395Z,6.30
2023-03-16T02:15:00.921Z,6.20
2023-03-16T02:20:10.432Z,5.40
2023-03-16T02:25:01.319Z,5.30
2023-03-16T02:30:06.775Z,4.90
2023-03-16T02:35:01.574Z,7.10
2023-03-16T02:40:01.304Z,7.90
2023-03-16T02:45:00.627Z,3.50
2023-03-16T02:50:00.986Z,5.70
2023-03-16T02:55:00.549Z,6.00
2023-03-16T03:00:01.189Z,6.40
2023-03-16T03:05:00.460Z,5.20
2023-03-16T03:10:00.537Z,5.00
2023-03-16T03:15:00.609Z,6.00
2023-03-16T03:20:00.731Z,5.40
2023-03-16T03:25:00.506Z,7.60
2023-03-16T03:30:00.521Z,5.80
2023-03-16T03:35:00.647Z,6.30
2023-03-16T03:40:00.525Z,5.60
2023-03-16T03:45:00.875Z,8.50
2023-03-16T03:50:00.615Z,5.50
2023-03-16T03:55:00.513Z,7.50
2023-03-16T04:00:01.257Z,7.30
2023-03-16T04:05:00.529Z,6.60
2023-03-16T04:10:00.543Z,5.70
2023-03-16T04:15:00.513Z,5.90
2023-03-16T04:20:00.497Z,5.90
2023-03-16T04:25:00.504Z,5.60
2023-03-16T04:30:01.175Z,5.90
2023-03-16T04:35:00.481Z,7.20
2023-03-16T04:40:00.584Z,6.30
2023-03-16T04:45:00.614Z,7.30
2023-03-16T04:50:00.640Z,6.60
2023-03-16T04:55:00.510Z,6.40
2023-03-16T05:00:01.515Z,6.70
2023-03-16T05:05:00.510Z,5.20
2023-03-16T05:10:00.529Z,6.70
2023-03-16T05:15:00.635Z,6.90
2023-03-16T05:20:00.533Z,5.00
2023-03-16T05:25:00.476Z,5.90
2023-03-16T05:30:00.519Z,5.70
2023-03-16T05:35:00.547Z,8.70
2023-03-16T05:40:00.507Z,5.20
2023-03-16T05:45:00.484Z,5.80
2023-03-16T05:50:00.523Z,5.30
2023-03-16T05:55:01.434Z,6.20
2023-03-16T06:00:04.237Z,5.90
2023-03-16T06:05:00.489Z,5.70
2023-03-16T06:10:00.799Z,4.90
2023-03-16T06:15:01.105Z,6.00
2023-03-16T06:20:00.627Z,5.40
2023-03-16T06:25:00.550Z,4.60
2023-03-16T06:30:00.610Z,5.90
2023-03-16T06:35:01.027Z,5.30
2023-03-16T06:40:00.711Z,6.50
2023-03-16T06:45:00.498Z,7.00
2023-03-16T06:50:00.528Z,5.40
2023-03-16T06:55:00.532Z,5.90
2023-03-16T07:00:01.230Z,5.00
2023-03-16T07:05:01.051Z,4.60
2023-03-16T07:10:00.518Z,6.50
2023-03-16T07:15:00.498Z,4.10
2023-03-16T07:20:00.556Z,6.10
2023-03-16T07:25:00.493Z,8.30
2023-03-16T07:30:00.544Z,4.30
2023-03-16T07:35:00.528Z,5.60
2023-03-16T07:40:00.508Z,4.60
2023-03-16T07:45:01.317Z,7.10
2023-03-16T07:50:00.507Z,7.10
2023-03-16T07:55:00.542Z,6.50
2023-03-16T08:00:02.330Z,7.80
2023-03-16T08:05:00.515Z,5.00
2023-03-16T08:10:00.494Z,4.30
2023-03-16T08:15:00.486Z,8.90
2023-03-16T08:20:00.505Z,8.30
2023-03-16T08:25:00.488Z,5.00
2023-03-16T08:30:00.526Z,4.90
2023-03-16T08:35:00.535Z,5.30
2023-03-16T08:40:00.562Z,6.00
2023-03-16T08:45:00.519Z,5.90
2023-03-16T08:50:01.362Z,5.30
2023-03-16T08:55:03.894Z,4.60
2023-03-16T09:00:02.149Z,4.30
2023-03-16T09:05:00.514Z,5.40
2023-03-16T09:10:00.676Z,5.70
2023-03-16T09:15:00.952Z,7.70
2023-03-16T09:20:15.046Z,5.80
2023-03-16T09:25:00.453Z,6.70
2023-03-16T09:30:00.510Z,4.00
2023-03-16T09:35:00.493Z,6.40
2023-03-16T09:40:06.509Z,4.90
2023-03-16T09:45:17.844Z,4.80
2023-03-16T09:50:07.228Z,3.60
2023-03-16T09:55:20.374Z,5.30
2023-03-16T10:00:14.580Z,4.60
2023-03-16T10:05:11.478Z,4.40
2023-03-16T10:10:15.625Z,4.60
2023-03-16T10:15:07.415Z,4.60
2023-03-16T10:20:02.965Z,5.30
2023-03-16T10:25:07.105Z,3.90
2023-03-16T10:30:02.683Z,3.80
2023-03-16T10:35:12.961Z,3.90
2023-03-16T10:40:04.666Z,3.20
2023-03-16T10:45:02.637Z,3.00
2023-03-16T10:50:11.602Z,5.60
2023-03-16T10:55:16.710Z,4.50
2023-03-16T11:00:05.860Z,4.20
2023-03-16T11:05:11.352Z,2.60
2023-03-16T11:10:00.494Z,4.10
2023-03-16T11:15:02.718Z,4.50
2023-03-16T11:20:04.285Z,2.70
2023-03-16T11:25:01.487Z,4.80
2023-03-16T11:30:18.078Z,3.30
2023-03-16T11:35:01.079Z,3.70
2023-03-16T11:40:09.270Z,3.40
2023-03-16T11:45:17.857Z,4.40
2023-03-16T11:50:12.721Z,2.70
2023-03-16T11:55:20.394Z,3.80
2023-03-16T12:00:12.077Z,2.40
2023-03-16T12:05:20.456Z,2.90
2023-03-16T12:10:13.427Z,1.90
2023-03-16T12:15:18.316Z,2.60
2023-03-16T12:20:12.540Z,3.10
2023-03-16T12:25:02.459Z,1.80
2023-03-16T12:30:17.866Z,2.90
2023-03-16T12:35:20.383Z,3.90
2023-03-16T12:40:02.899Z,4.10
2023-03-16T12:45:13.146Z,2.90
2023-03-16T12:50:07.131Z,2.70
2023-03-16T12:55:13.474Z,1.50
2023-03-16T13:00:02.425Z,1.70
2023-03-16T13:05:08.170Z,2.80
2023-03-16T13:10:07.412Z,2.10
2023-03-16T13:15:00.528Z,3.10
2023-03-16T13:20:13.732Z,2.30
2023-03-16T13:25:16.629Z,2.10
2023-03-16T13:30:15.293Z,2.90
2023-03-16T13:35:04.644Z,3.60
2023-03-16T13:40:02.080Z,2.20
2023-03-16T13:45:12.660Z,2.00
2023-03-16T13:50:00.515Z,2.40
2023-03-16T13:55:09.592Z,2.70
2023-03-16T14:00:19.456Z,2.80
2023-03-16T14:05:09.754Z,2.60
2023-03-16T14:10:00.646Z,2.40
2023-03-16T14:15:04.207Z,1.80
2023-03-16T14:20:00.841Z,3.40
2023-03-16T14:25:01.026Z,1.90
2023-03-16T14:30:11.883Z,3.10
2023-03-16T14:35:11.282Z,1.60
2023-03-16T14:40:04.613Z,3.70
2023-03-16T14:45:03.989Z,2.60
2023-03-16T14:50:05.742Z,2.70
2023-03-16T14:55:09.276Z,2.90
2023-03-16T15:00:01.033Z,2.10
2023-03-16T15:05:01.792Z,2.40
2023-03-16T15:10:06.240Z,1.70
2023-03-16T15:15:00.503Z,2.30
2023-03-16T15:20:00.502Z,1.70
2023-03-16T15:25:18.172Z,3.40
2023-03-16T15:30:00.529Z,1.80
2023-03-16T15:35:00.527Z,1.90
2023-03-16T15:40:00.987Z,1.90
2023-03-16T15:45:00.496Z,3.30
2023-03-16T15:50:00.505Z,4.40
2023-03-16T15:55:00.593Z,1.80
2023-03-16T16:00:02.372Z,2.50
2023-03-16T16:05:00.487Z,1.90
2023-03-16T16:10:00.618Z,2.50
2023-03-16T16:15:00.625Z,3.10
2023-03-16T16:20:00.476Z,4.00
2023-03-16T16:25:00.475Z,2.30
2023-03-16T16:30:00.526Z,2.40
2023-03-16T16:35:04.654Z,1.10
2023-03-16T16:40:00.512Z,1.50
2023-03-16T16:45:00.556Z,1.50
2023-03-16T16:50:00.492Z,3.10
2023-03-16T16:55:00.558Z,2.70
2023-03-16T17:00:03.300Z,2.10
2023-03-16T17:05:00.634Z,2.50
2023-03-16T17:10:00.479Z,1.90
2023-03-16T17:15:00.685Z,2.30
2023-03-16T17:20:00.572Z,4.10
2023-03-16T17:25:00.482Z,2.30
2023-03-16T17:30:00.614Z,3.30
2023-03-16T17:35:00.510Z,1.90
2023-03-16T17:40:00.490Z,3.30
2023-03-16T17:45:00.526Z,3.40
2023-03-16T17:50:00.667Z,3.50
2023-03-16T17:55:00.490Z,2.30
2023-03-16T18:00:03.900Z,2.80
2023-03-16T18:05:00.502Z,2.60
2023-03-16T18:10:00.601Z,4.40
2023-03-16T18:15:00.547Z,3.80
2023-03-16T18:20:00.575Z,2.20
2023-03-16T18:25:00.641Z,3.60
2023-03-16T18:30:00.520Z,2.80
2023-03-16T18:35:02.812Z,2.90
2023-03-16T18:40:00.595Z,3.20
2023-03-16T18:45:00.500Z,4.30
2023-03-16T18:50:00.544Z,3.10
2023-03-16T18:55:00.501Z,3.50
2023-03-16T19:00:02.018Z,3.10
2023-03-16T19:05:02.502Z,6.00
2023-03-16T19:10:04.753Z,2.90
2023-03-16T19:15:00.508Z,5.80
2023-03-16T19:20:00.488Z,5.30
2023-03-16T19:25:00.535Z,2.70
2023-03-16T19:30:00.513Z,3.10
2023-03-16T19:35:00.471Z,3.60
2023-03-16T19:40:00.516Z,5.20
2023-03-16T19:45:01.706Z,6.20
2023-03-16T19:50:00.964Z,3.10
2023-03-16T19:55:00.959Z,3.10
2023-03-16T20:00:01.520Z,3.30
2023-03-16T20:05:00.548Z,4.20
2023-03-16T20:10:00.544Z,3.40
2023-03-16T20:15:00.689Z,3.50
2023-03-16T20:20:00.522Z,3.10
2023-03-16T20:25:00.540Z,2.60
2023-03-16T20:30:00.540Z,4.90
2023-03-16T20:35:00.479Z,4.90
2023-03-16T20:40:00.496Z,3.60
2023-03-16T20:45:00.746Z,2.50
2023-03-16T20:50:00.521Z,3.90
2023-03-16T20:55:00.796Z,2.20
2023-03-16T21:00:02.410Z,2.40
2023-03-16T21:05:04.828Z,2.50
2023-03-16T21:10:00.608Z,3.70
2023-03-16T21:15:06.982Z,4.00
2023-03-16T21:20:00.563Z,2.60
2023-03-16T21:25:00.542Z,1.90
2023-03-16T21:30:07.795Z,4.30
2023-03-16T21:35:00.557Z,2.10
2023-03-16T21:40:01.452Z,3.30
2023-03-16T21:45:00.484Z,2.70
2023-03-16T21:50:00.751Z,1.80
2023-03-16T21:55:00.532Z,2.40
2023-03-16T22:00:02.336Z,3.70
2023-03-16T22:05:01.204Z,3.90
2023-03-16T22:10:00.477Z,2.70
2023-03-16T22:15:00.547Z,2.50
2023-03-16T22:20:00.498Z,2.30
2023-03-16T22:25:00.476Z,2.90
2023-03-16T22:30:00.513Z,4.00
2023-03-16T22:35:00.636Z,2.80
2023-03-16T22:40:00.933Z,2.20
2023-03-16T22:45:01.303Z,1.70
2023-03-16T22:50:00.500Z,3.90
2023-03-16T22:55:04.148Z,2.60
2023-03-16T23:00:02.303Z,1.90
2023-03-16T23:05:00.600Z,3.60
2023-03-16T23:10:00.506Z,2.60
2023-03-16T23:15:00.541Z,3.20
2023-03-16T23:20:00.519Z,2.90
2023-03-16T23:25:00.478Z,3.90
2023-03-16T23:30:00.690Z,3.10
2023-03-16T23:35:00.520Z,2.00
2023-03-16T23:40:00.516Z,2.60
2023-03-16T23:45:07.975Z,3.70
2023-03-16T23:50:00.765Z,3.30
2023-03-16T23:55:00.504Z,3.90
